Time;durP1;ratioP1;P1;durP2;ratioP2;P2;SDS_P1;SDS_P2;PMS_P1;PMS_P2;Temp;Humidity;BMP_temperature;BMP_pressure;BME280_temperature;BME280_humidity;BME280_pressure;Samples;Min_cycle;Max_cycle;Signal;HPM_P1;HPM_P2
2021/07/07 00:01:49;;;;;;;7.15;6.50;;;;;;;21.40;85.59;101265.03;6388298;28;20224;-76
2021/07/07 00:04:55;;;;;;;7.65;6.95;;;;;;;21.46;85.18;101264.78;6388210;28;20182;-75
2021/07/07 00:08:03;;;;;;;7.70;7.03;;;;;;;21.50;85.09;101270.59;6388239;28;20245;-75
2021/07/07 00:11:10;;;;;;;7.28;6.68;;;;;;;21.47;85.24;101271.97;6386976;28;20270;-75
2021/07/07 00:14:14;;;;;;;7.82;7.22;;;;;;;21.53;85.05;101265.31;6387845;28;20181;-76
2021/07/07 00:17:29;;;;;;;7.95;7.25;;;;;;;21.39;86.16;101277.28;6391856;27;20182;-76
2021/07/07 00:20:38;;;;;;;8.70;7.80;;;;;;;21.47;85.65;101265.63;6391468;27;20215;-76
2021/07/07 00:23:42;;;;;;;7.45;6.95;;;;;;;21.41;86.23;101270.34;6391431;27;20476;-76
2021/07/07 00:27:11;;;;;;;7.13;6.63;;;;;;;21.41;86.23;101273.13;6391757;27;20183;-76
2021/07/07 00:30:18;;;;;;;8.00;7.30;;;;;;;21.50;85.04;101263.09;6386206;27;20256;-76
2021/07/07 00:33:22;;;;;;;8.25;7.18;;;;;;;21.41;86.28;101262.00;6392220;27;20237;-76
2021/07/07 00:36:32;;;;;;;7.70;7.15;;;;;;;21.39;86.64;101275.31;6392468;27;20181;-76
2021/07/07 00:39:36;;;;;;;8.45;7.75;;;;;;;21.39;87.00;101274.50;6392015;27;20212;-76
2021/07/07 00:42:41;;;;;;;7.18;6.53;;;;;;;21.50;85.84;101287.25;6390946;27;20359;-76
2021/07/07 00:45:46;;;;;;;8.15;7.55;;;;;;;21.39;87.07;101293.94;6391870;27;20181;-76
2021/07/07 00:48:52;;;;;;;8.20;7.47;;;;;;;21.36;87.46;101295.31;6390895;27;20442;-76
2021/07/07 00:52:02;;;;;;;7.90;7.10;;;;;;;21.39;87.03;101291.97;6392098;27;20286;-75
2021/07/07 00:55:08;;;;;;;9.43;7.50;;;;;;;21.45;87.00;101292.81;6390566;27;20492;-75
2021/07/07 00:58:17;;;;;;;8.60;7.90;;;;;;;21.40;87.23;101285.31;6390594;27;20192;-75
2021/07/07 01:01:25;;;;;;;7.55;6.95;;;;;;;21.50;86.12;101276.13;6392082;27;20188;-75
2021/07/07 01:04:31;;;;;;;7.00;6.63;;;;;;;21.39;86.89;101280.88;6391751;27;20261;-76
2021/07/07 01:07:44;;;;;;;7.85;7.35;;;;;;;21.44;86.47;101288.38;6373225;27;20260;-76
2021/07/07 01:10:55;;;;;;;8.00;7.40;;;;;;;21.53;86.12;101275.59;6390642;27;20184;-75
2021/07/07 01:14:05;;;;;;;7.72;7.18;;;;;;;21.47;86.36;101283.09;6390562;27;20210;-76
2021/07/07 01:17:09;;;;;;;7.65;7.05;;;;;;;21.53;85.82;101287.53;6391266;27;20256;-75
2021/07/07 01:20:15;;;;;;;8.10;7.60;;;;;;;21.46;87.05;101283.38;6391434;27;20284;-75
2021/07/07 01:23:21;;;;;;;7.60;6.90;;;;;;;21.43;87.01;101275.59;6391210;27;20229;-75
2021/07/07 01:26:26;;;;;;;7.72;7.07;;;;;;;21.54;85.82;101282.81;6391365;27;20188;-75
2021/07/07 01:29:36;;;;;;;7.35;6.72;;;;;;;21.57;86.00;101282.28;6390488;27;20312;-75
2021/07/07 01:32:41;;;;;;;7.82;6.72;;;;;;;21.59;85.66;101285.59;6390737;27;20210;-75
2021/07/07 01:35:45;;;;;;;7.18;6.57;;;;;;;21.59;86.05;101277.25;6391114;27;20219;-76
2021/07/07 01:38:51;;;;;;;7.65;7.05;;;;;;;21.58;86.23;101281.13;6391075;27;20227;-75
2021/07/07 01:41:56;;;;;;;7.78;6.75;;;;;;;21.54;86.73;101282.81;6389668;27;20379;-75
2021/07/07 01:45:02;;;;;;;7.35;6.65;;;;;;;21.55;86.75;101284.47;6390546;27;20217;-75
2021/07/07 01:48:06;;;;;;;6.97;6.57;;;;;;;21.53;86.62;101284.75;6390914;27;20190;-75
2021/07/07 01:51:10;;;;;;;7.35;6.80;;;;;;;21.57;86.30;101287.81;6389470;27;20257;-76
2021/07/07 01:54:24;;;;;;;7.75;7.05;;;;;;;21.57;86.68;101307.25;6390704;27;20242;-75
2021/07/07 01:57:43;;;;;;;7.80;7.13;;;;;;;21.53;86.91;101297.81;6390674;27;20181;-75
2021/07/07 02:00:49;;;;;;;7.47;6.97;;;;;;;21.53;87.06;101320.00;6389094;27;20525;-77
2021/07/07 02:03:59;;;;;;;8.10;6.70;;;;;;;21.60;86.17;101306.69;6389146;27;20252;-75
2021/07/07 02:07:06;;;;;;;8.70;6.45;;;;;;;21.57;86.49;101310.03;6405290;27;20197;-75
2021/07/07 02:10:16;;;;;;;7.50;6.82;;;;;;;21.59;86.71;101316.13;6389051;27;20182;-76
2021/07/07 02:13:20;;;;;;;6.57;6.07;;;;;;;21.56;86.51;101313.91;6389972;27;20250;-75
2021/07/07 02:16:28;;;;;;;7.07;6.60;;;;;;;21.52;87.34;101324.72;6389925;27;20188;-76
2021/07/07 02:19:33;;;;;;;6.97;6.28;;;;;;;21.51;87.07;101311.13;6390127;27;20182;-75
2021/07/07 02:22:37;;;;;;;7.78;6.30;;;;;;;21.61;86.61;101313.91;6388781;27;20473;-75
2021/07/07 02:25:45;;;;;;;7.05;6.45;;;;;;;21.62;86.64;101301.69;6389964;27;20226;-76
2021/07/07 02:28:49;;;;;;;6.90;6.15;;;;;;;21.58;86.59;101312.53;6373905;27;20226;-76
2021/07/07 02:31:55;;;;;;;7.40;6.80;;;;;;;21.57;86.80;101315.59;6364074;28;20182;-76
2021/07/07 02:35:02;;;;;;;7.00;6.50;;;;;;;21.55;86.78;101315.00;6363667;28;20256;-76
2021/07/07 02:38:08;;;;;;;7.22;6.70;;;;;;;21.61;86.26;101319.47;6363240;28;20197;-75
2021/07/07 02:41:14;;;;;;;7.07;6.57;;;;;;;21.58;87.15;101328.34;6362622;28;20558;-76
2021/07/07 02:44:20;;;;;;;6.82;6.22;;;;;;;21.50;87.02;101331.66;6363969;28;20186;-75
2021/07/07 02:47:24;;;;;;;7.05;6.65;;;;;;;21.58;86.76;101340.28;6345385;28;20544;-75
2021/07/07 02:50:30;;;;;;;7.25;6.55;;;;;;;21.60;86.57;101320.56;6362617;28;20515;-75
2021/07/07 02:53:34;;;;;;;6.47;5.97;;;;;;;21.68;85.55;101328.34;6362312;28;20273;-76
2021/07/07 02:56:40;;;;;;;7.05;6.47;;;;;;;21.72;85.08;101337.78;6362375;28;20549;-75
2021/07/07 02:59:48;;;;;;;6.78;6.28;;;;;;;21.64;85.81;101341.13;6363744;28;20189;-75
2021/07/07 03:02:52;;;;;;;6.40;6.10;;;;;;;21.70;85.54;101328.88;6344226;28;20275;-78
2021/07/07 03:05:59;;;;;;;7.30;6.50;;;;;;;21.64;85.90;101352.22;6362517;28;20227;-75
2021/07/07 03:09:03;;;;;;;6.75;6.30;;;;;;;21.67;85.50;101343.34;6363418;28;20182;-75
2021/07/07 03:12:09;;;;;;;7.10;6.50;;;;;;;21.68;85.68;101345.00;6363347;28;20189;-75
2021/07/07 03:15:16;;;;;;;6.60;6.00;;;;;;;21.72;85.41;101357.22;6361801;28;20501;-75
2021/07/07 03:18:26;;;;;;;6.72;6.22;;;;;;;21.70;85.69;101354.72;6362235;28;20243;-75
2021/07/07 03:21:34;;;;;;;6.28;5.85;;;;;;;21.78;84.84;101347.75;6362524;28;20194;-75
2021/07/07 03:24:38;;;;;;;6.88;6.35;;;;;;;21.65;85.86;101357.50;6362889;28;20185;-75
2021/07/07 03:27:44;;;;;;;6.78;6.38;;;;;;;21.77;85.43;101357.22;6344884;28;20232;-76
2021/07/07 03:30:49;;;;;;;6.50;6.00;;;;;;;21.67;85.82;101362.78;6361820;28;20275;-75
2021/07/07 03:33:54;;;;;;;8.70;6.70;;;;;;;21.59;86.47;101374.44;6363085;28;20205;-75
2021/07/07 03:37:03;;;;;;;6.70;6.07;;;;;;;21.72;85.15;101368.34;6361714;28;20473;-75
2021/07/07 03:40:09;;;;;;;6.60;6.15;;;;;;;21.72;85.32;101380.25;6388436;28;20245;-75
2021/07/07 03:43:16;;;;;;;6.90;6.28;;;;;;;21.83;84.84;101389.41;6387233;28;20185;-76
2021/07/07 03:46:29;;;;;;;6.13;5.68;;;;;;;21.80;84.78;101392.78;6388221;28;20181;-75
2021/07/07 03:49:33;;;;;;;6.50;5.95;;;;;;;21.74;85.35;101382.78;6388196;27;20217;-75
2021/07/07 03:52:39;;;;;;;5.95;5.57;;;;;;;21.80;84.93;101387.22;6391772;27;20410;-75
2021/07/07 03:55:43;;;;;;;6.78;6.28;;;;;;;21.87;84.67;101386.97;6393083;27;20277;-75
2021/07/07 03:58:55;;;;;;;7.50;5.60;;;;;;;21.93;84.00;101397.78;6393592;27;20185;-75
2021/07/07 04:02:01;;;;;;;6.47;5.88;;;;;;;21.92;84.16;101390.56;6393463;27;20182;-75
2021/07/07 04:05:07;;;;;;;6.53;6.03;;;;;;;21.82;85.16;101385.00;6391978;27;20496;-76
2021/07/07 04:08:18;;;;;;;6.70;6.00;;;;;;;21.79;85.01;101377.22;6393038;27;20245;-75
2021/07/07 04:11:23;;;;;;;7.00;6.10;;;;;;;21.84;84.65;101377.22;6391775;27;20414;-75
2021/07/07 04:14:32;;;;;;;14.23;6.65;;;;;;;21.79;84.76;101382.78;6393049;27;20237;-75
2021/07/07 04:17:38;;;;;;;7.07;6.22;;;;;;;21.93;83.68;101397.78;6392881;27;20181;-76
2021/07/07 04:20:45;;;;;;;11.73;6.57;;;;;;;21.97;83.17;101401.69;6391706;27;20361;-76
2021/07/07 04:23:51;;;;;;;10.90;6.88;;;;;;;21.91;84.00;101394.47;6392921;27;20311;-76
2021/07/07 04:26:58;;;;;;;7.18;6.55;;;;;;;22.00;83.68;101406.69;6393019;27;20249;-76
2021/07/07 04:30:07;;;;;;;6.25;5.95;;;;;;;21.98;83.58;101411.66;6391729;27;20240;-76
2021/07/07 04:33:18;;;;;;;6.38;6.00;;;;;;;21.98;83.24;101428.34;6392883;27;20186;-76
2021/07/07 04:36:22;;;;;;;7.10;6.15;;;;;;;22.03;83.19;101413.63;6392666;27;20214;-76
2021/07/07 04:39:26;;;;;;;7.32;6.40;;;;;;;22.04;82.95;101410.56;6392324;27;20204;-76
2021/07/07 04:42:30;;;;;;;8.60;6.57;;;;;;;22.07;83.09;101420.28;6392405;27;20248;-76
2021/07/07 04:45:37;;;;;;;12.95;6.50;;;;;;;22.06;82.93;101416.66;6392562;27;20221;-76
2021/07/07 04:48:43;;;;;;;15.60;6.13;;;;;;;22.04;83.09;101427.22;6392444;27;20188;-76
2021/07/07 04:51:47;;;;;;;8.82;6.22;;;;;;;22.01;83.47;101425.00;6391353;27;20202;-76
2021/07/07 04:54:51;;;;;;;5.72;5.43;;;;;;;22.05;83.07;101417.81;6390938;27;20527;-75
2021/07/07 04:57:58;;;;;;;6.72;5.97;;;;;;;22.03;82.56;101403.34;6392198;27;20249;-74
2021/07/07 05:01:04;;;;;;;5.85;5.45;;;;;;;21.97;82.45;101407.25;6391254;27;20251;-74
2021/07/07 05:04:08;;;;;;;7.32;6.30;;;;;;;21.95;83.01;101412.25;6391717;27;20185;-75
2021/07/07 05:07:14;;;;;;;13.13;6.32;;;;;;;21.92;83.07;101404.47;6390562;27;20535;-75
2021/07/07 05:10:19;;;;;;;11.35;6.18;;;;;;;21.95;83.68;101403.06;6391497;27;20276;-75
2021/07/07 05:13:25;;;;;;;7.35;6.50;;;;;;;21.94;83.97;101399.47;6391471;27;20182;-76
2021/07/07 05:16:32;;;;;;;12.30;6.40;;;;;;;22.03;83.54;101408.91;6390206;27;20381;-75
2021/07/07 05:19:38;;;;;;;9.48;6.18;;;;;;;21.96;84.12;101415.84;6391368;27;20213;-76
2021/07/07 05:22:49;;;;;;;10.35;6.40;;;;;;;22.02;83.29;101412.78;6390205;27;20352;-75
2021/07/07 05:25:55;;;;;;;11.55;6.80;;;;;;;22.04;83.08;101410.56;6390969;27;20290;-75
2021/07/07 05:29:01;;;;;;;11.85;6.60;;;;;;;22.04;83.46;101421.69;6372584;27;20234;-75
2021/07/07 05:32:08;;;;;;;9.30;7.10;;;;;;;22.08;83.69;101425.59;6365656;28;20220;-75
2021/07/07 05:35:14;;;;;;;6.95;6.40;;;;;;;22.08;83.70;101433.91;6390615;27;20284;-75
2021/07/07 05:38:20;;;;;;;8.80;6.82;;;;;;;22.08;83.58;101449.75;6391095;27;20185;-77
2021/07/07 05:41:28;;;;;;;7.15;6.43;;;;;;;22.00;84.04;101469.75;6389693;27;20531;-75
2021/07/07 05:44:35;;;;;;;9.05;7.00;;;;;;;22.05;84.64;101470.59;6390792;27;20186;-75
2021/07/07 05:47:42;;;;;;;9.98;7.10;;;;;;;22.08;85.74;101478.38;6389495;27;20181;-76
2021/07/07 05:50:54;;;;;;;11.77;7.95;;;;;;;22.00;87.69;101481.72;6390660;27;20244;-75
2021/07/07 05:54:00;;;;;;;11.10;8.30;;;;;;;22.01;87.75;101488.09;6389305;27;20213;-74
2021/07/07 05:57:10;;;;;;;13.20;8.80;;;;;;;21.97;89.47;101490.59;6390520;27;20209;-75
2021/07/07 06:00:17;;;;;;;11.73;10.15;;;;;;;22.00;90.33;101498.38;6390084;27;20181;-75
2021/07/07 06:03:24;;;;;;;20.17;11.43;;;;;;;21.81;92.84;101495.25;6390507;27;20181;-75
2021/07/07 06:06:28;;;;;;;19.75;10.80;;;;;;;21.78;93.56;101494.97;6390245;27;20185;-75
2021/07/07 06:09:34;;;;;;;9.57;8.57;;;;;;;21.62;93.50;101468.31;6388794;27;20275;-75
2021/07/07 06:12:39;;;;;;;12.43;9.45;;;;;;;21.62;93.29;101468.31;6389641;27;20267;-75
2021/07/07 06:15:43;;;;;;;11.60;9.38;;;;;;;21.62;93.17;101469.13;6389408;27;20212;-75
2021/07/07 06:18:49;;;;;;;13.60;10.05;;;;;;;21.73;92.92;101481.06;6388578;27;20204;-75
2021/07/07 06:21:57;;;;;;;16.30;10.80;;;;;;;21.75;93.56;101484.44;6388590;27;20468;-75
2021/07/07 06:25:01;;;;;;;15.63;9.75;;;;;;;21.72;93.48;101471.09;6389418;27;20186;-75
2021/07/07 06:28:06;;;;;;;17.95;9.80;;;;;;;21.70;93.94;101464.97;6388428;27;20477;-75
2021/07/07 06:31:15;;;;;;;11.63;9.63;;;;;;;21.64;92.89;101466.09;6389616;27;20204;-75
2021/07/07 06:34:21;;;;;;;10.85;9.80;;;;;;;21.56;94.72;101441.63;6388280;27;20488;-75
2021/07/07 06:37:25;;;;;;;12.05;10.57;;;;;;;21.51;96.83;101438.84;6389146;27;20209;-74
2021/07/07 06:40:29;;;;;;;11.30;10.18;;;;;;;21.55;96.72;101456.59;6389345;27;20250;-75
2021/07/07 06:43:33;;;;;;;15.32;9.60;;;;;;;21.47;97.32;101443.28;6389121;27;20213;-74
2021/07/07 06:46:37;;;;;;;13.82;10.43;;;;;;;21.48;97.98;101428.28;6388049;27;20533;-75
2021/07/07 06:49:44;;;;;;;11.02;9.85;;;;;;;21.42;98.14;101412.72;6389270;27;20186;-75
2021/07/07 06:52:55;;;;;;;14.65;10.32;;;;;;;21.51;97.47;101405.53;6389210;27;20242;-75
2021/07/07 06:56:04;;;;;;;11.25;10.07;;;;;;;21.59;96.90;101397.50;6387645;27;20398;-75
2021/07/07 06:59:08;;;;;;;11.52;9.98;;;;;;;21.59;97.16;101396.66;6389275;27;20182;-75
2021/07/07 07:02:12;;;;;;;10.43;9.52;;;;;;;21.61;95.55;101397.22;6387753;27;20495;-76
2021/07/07 07:05:20;;;;;;;9.82;8.98;;;;;;;21.59;95.04;101413.31;6387682;27;20535;-75
2021/07/07 07:08:26;;;;;;;9.90;8.95;;;;;;;21.59;95.76;101414.16;6388039;27;20268;-75
2021/07/07 07:11:32;;;;;;;10.35;9.25;;;;;;;21.66;95.16;101419.41;6388828;27;20218;-75
2021/07/07 07:14:36;;;;;;;11.90;9.30;;;;;;;21.70;95.03;101409.41;6388528;27;20212;-75
2021/07/07 07:17:40;;;;;;;12.40;8.85;;;;;;;21.70;95.38;101409.41;6388749;27;20274;-76
2021/07/07 07:20:46;;;;;;;10.05;9.25;;;;;;;21.73;95.37;101419.97;6387225;27;20192;-75
2021/07/07 07:23:50;;;;;;;9.00;8.07;;;;;;;21.84;94.12;101430.00;6388487;27;20181;-75
2021/07/07 07:26:54;;;;;;;8.80;8.20;;;;;;;21.85;94.67;101423.34;6387140;27;20545;-75
2021/07/07 07:29:58;;;;;;;9.75;8.82;;;;;;;21.89;94.18;101418.91;6388330;27;20236;-76
2021/07/07 07:33:06;;;;;;;10.30;9.23;;;;;;;21.92;94.12;101415.59;6388695;28;20196;-76
2021/07/07 07:36:15;;;;;;;9.48;8.48;;;;;;;21.94;94.44;101421.69;6388039;28;20237;-76
2021/07/07 07:39:22;;;;;;;9.30;8.30;;;;;;;22.03;93.78;101414.47;6388353;28;20188;-77
2021/07/07 07:42:28;;;;;;;8.68;7.90;;;;;;;22.05;93.95;101423.34;6387976;28;20188;-76
2021/07/07 07:45:35;;;;;;;8.40;7.68;;;;;;;22.05;94.06;101423.34;6387645;28;20213;-76
2021/07/07 07:48:43;;;;;;;9.55;7.50;;;;;;;22.06;93.79;101441.69;6387978;28;20234;-75
2021/07/07 07:51:51;;;;;;;14.25;7.95;;;;;;;22.13;94.22;101447.81;6386904;28;20488;-75
2021/07/07 07:54:57;;;;;;;8.23;7.38;;;;;;;22.16;93.25;101441.66;6387851;28;20258;-75
2021/07/07 07:58:04;;;;;;;14.43;8.50;;;;;;;22.20;93.82;101448.34;6386769;28;20568;-75
2021/07/07 08:01:09;;;;;;;8.02;7.53;;;;;;;22.25;93.16;101455.84;6369125;28;20204;-76
2021/07/07 08:04:13;;;;;;;8.07;7.47;;;;;;;22.22;92.43;101446.13;6387823;28;20181;-76
2021/07/07 08:07:21;;;;;;;10.10;7.45;;;;;;;22.26;92.87;101455.56;6388106;28;20220;-75
2021/07/07 08:10:33;;;;;;;8.93;8.25;;;;;;;22.35;93.53;101451.09;6387899;28;20182;-75
2021/07/07 08:13:38;;;;;;;8.88;8.18;;;;;;;22.31;96.04;101444.47;6387666;28;20182;-75
2021/07/07 08:16:42;;;;;;;13.32;7.63;;;;;;;22.36;92.94;101457.50;6386477;28;20230;-76
2021/07/07 08:19:53;;;;;;;9.48;7.97;;;;;;;22.43;91.59;101460.81;6386519;28;20432;-75
2021/07/07 08:22:59;;;;;;;8.38;7.57;;;;;;;22.42;91.96;101454.44;6387399;28;20249;-75
2021/07/07 08:26:06;;;;;;;8.27;7.53;;;;;;;22.51;92.09;101453.84;6387375;28;20185;-75
2021/07/07 08:29:12;;;;;;;7.53;6.93;;;;;;;22.60;91.13;101457.75;6386182;28;20261;-75
2021/07/07 08:32:20;;;;;;;8.38;7.60;;;;;;;22.59;91.57;101461.63;6387544;28;20278;-75
2021/07/07 08:35:25;;;;;;;9.30;7.72;;;;;;;22.62;91.95;101461.06;6386778;27;20214;-75
2021/07/07 08:38:31;;;;;;;8.68;7.85;;;;;;;22.60;92.25;101453.00;6391417;27;20237;-75
2021/07/07 08:41:35;;;;;;;9.25;8.02;;;;;;;22.68;93.00;101446.06;6390856;27;20213;-74
2021/07/07 08:44:39;;;;;;;8.57;7.75;;;;;;;22.72;91.89;101438.81;6390785;27;20185;-75
2021/07/07 08:47:50;;;;;;;10.30;7.05;;;;;;;22.78;90.61;101444.06;6391816;27;20217;-75
2021/07/07 08:50:59;;;;;;;7.53;7.05;;;;;;;22.74;89.95;101450.50;6390616;27;20468;-76
2021/07/07 08:54:08;;;;;;;8.07;7.50;;;;;;;22.79;91.01;101451.31;6390757;27;20181;-74
2021/07/07 08:57:12;;;;;;;8.82;7.85;;;;;;;22.83;89.70;101434.91;6391885;27;20209;-75
2021/07/07 09:00:20;;;;;;;7.90;7.18;;;;;;;22.73;90.33;101429.34;6390330;27;20192;-74
2021/07/07 09:03:25;;;;;;;9.93;8.10;;;;;;;22.77;89.56;101438.81;6372424;27;20204;-75
2021/07/07 09:06:29;;;;;;;16.45;8.40;;;;;;;22.80;90.45;101422.34;6391617;27;20193;-75
2021/07/07 09:09:39;;;;;;;12.32;8.18;;;;;;;22.74;90.16;101414.34;6390353;27;20182;-76
2021/07/07 09:12:44;;;;;;;8.30;7.55;;;;;;;22.80;90.15;101418.78;6391796;27;20256;-76
2021/07/07 09:15:49;;;;;;;8.75;7.97;;;;;;;22.85;91.37;101427.94;6391409;27;20181;-76
2021/07/07 09:18:54;;;;;;;7.70;7.20;;;;;;;22.79;90.45;101429.06;6390367;27;20272;-76
2021/07/07 09:22:04;;;;;;;8.73;8.02;;;;;;;22.84;90.24;101425.41;6391596;27;20227;-75
2021/07/07 09:25:10;;;;;;;7.95;7.43;;;;;;;22.87;91.93;101424.84;6391436;27;20227;-75
2021/07/07 09:28:20;;;;;;;10.10;8.15;;;;;;;22.89;92.85;101436.53;6389639;27;20469;-75
2021/07/07 09:31:34;;;;;;;8.65;7.82;;;;;;;22.93;92.16;101434.84;6390780;27;20181;-75
2021/07/07 09:34:40;;;;;;;12.52;8.27;;;;;;;23.02;92.28;101427.56;6390679;27;20250;-75
2021/07/07 09:37:48;;;;;;;13.13;8.15;;;;;;;23.11;92.73;101425.88;6390596;27;20212;-75
2021/07/07 09:40:54;;;;;;;10.55;8.00;;;;;;;23.19;92.08;101422.47;6390771;27;20190;-75
2021/07/07 09:43:59;;;;;;;8.73;7.78;;;;;;;23.29;91.52;101433.53;6390673;27;20294;-75
2021/07/07 09:47:05;;;;;;;8.75;7.97;;;;;;;23.35;91.03;101445.47;6390671;27;20264;-76
2021/07/07 09:50:13;;;;;;;8.07;7.35;;;;;;;23.45;91.32;101454.63;6389193;27;20189;-75
2021/07/07 09:53:18;;;;;;;7.63;7.00;;;;;;;23.47;88.78;101457.97;6390494;27;20190;-76
2021/07/07 09:56:26;;;;;;;8.10;7.45;;;;;;;23.41;88.68;101463.88;6390533;27;20182;-75
2021/07/07 09:59:30;;;;;;;8.25;7.40;;;;;;;23.47;88.94;101462.72;6389184;27;20298;-75
2021/07/07 10:02:34;;;;;;;7.28;6.88;;;;;;;23.43;90.31;101473.59;6390708;27;20216;-75
2021/07/07 10:05:40;;;;;;;7.38;6.78;;;;;;;23.49;88.98;101480.81;6389077;27;20481;-75
2021/07/07 10:08:46;;;;;;;7.75;7.00;;;;;;;23.45;88.22;101465.78;6389306;27;20193;-76
2021/07/07 10:11:51;;;;;;;8.27;7.55;;;;;;;23.34;88.24;101475.28;6389400;27;20250;-75
2021/07/07 10:14:56;;;;;;;7.68;7.03;;;;;;;23.30;88.44;101474.19;6389670;27;20196;-76
2021/07/07 10:18:03;;;;;;;7.95;7.18;;;;;;;23.25;89.59;101488.13;6389653;27;20245;-76
2021/07/07 10:21:08;;;;;;;7.90;7.18;;;;;;;23.25;90.57;101477.00;6389723;27;20182;-76
2021/07/07 10:24:13;;;;;;;8.65;8.02;;;;;;;23.28;90.21;101487.56;6389706;27;20182;-76
2021/07/07 10:27:20;;;;;;;11.60;7.72;;;;;;;23.40;89.83;101476.94;6389364;27;20252;-76
2021/07/07 10:30:50;;;;;;;9.30;8.40;;;;;;;23.40;91.05;101485.31;6388582;27;20260;-77
2021/07/07 10:34:01;;;;;;;10.93;9.07;;;;;;;23.32;90.66;101499.78;6389752;27;20217;-76
2021/07/07 10:37:06;;;;;;;9.63;8.73;;;;;;;23.34;90.74;101517.03;6388254;27;20402;-76
2021/07/07 10:40:25;;;;;;;10.25;8.50;;;;;;;23.40;89.71;101524.28;6388611;27;20370;-74
2021/07/07 10:43:44;;;;;;;9.68;8.45;;;;;;;23.34;89.94;101510.66;6388074;27;20372;-76
2021/07/07 10:46:50;;;;;;;9.43;8.50;;;;;;;23.40;90.32;101515.09;6389705;27;20188;-77
2021/07/07 10:49:55;;;;;;;13.70;9.82;;;;;;;23.50;90.08;101490.81;6371197;27;20245;-76
2021/07/07 10:52:59;;;;;;;10.98;8.48;;;;;;;23.51;89.21;101486.91;6388927;27;20244;-76
2021/07/07 10:56:06;;;;;;;10.25;8.68;;;;;;;23.52;90.46;101505.28;6387952;27;20182;-77
2021/07/07 10:59:34;;;;;;;11.73;9.13;;;;;;;23.46;91.65;101516.75;6388728;27;20209;-76
2021/07/07 11:02:38;;;;;;;9.38;8.48;;;;;;;23.45;90.47;101515.91;6388873;27;20181;-76
2021/07/07 11:05:42;;;;;;;11.13;9.23;;;;;;;23.50;90.93;101489.97;6387682;27;20469;-76
2021/07/07 11:08:48;;;;;;;11.48;9.25;;;;;;;23.48;91.00;101498.63;6388768;27;20212;-76
2021/07/07 11:11:54;;;;;;;15.80;9.73;;;;;;;23.57;89.53;101496.91;6387593;27;20465;-76
2021/07/07 11:15:07;;;;;;;14.23;9.50;;;;;;;23.48;92.11;101487.50;6387437;27;20503;-76
2021/07/07 11:18:25;;;;;;;12.15;9.10;;;;;;;23.52;90.00;101483.00;6387952;27;20206;-76
2021/07/07 11:21:31;;;;;;;16.83;9.80;;;;;;;23.50;91.68;101490.81;6387531;27;20428;-76
2021/07/07 11:24:35;;;;;;;12.35;9.18;;;;;;;23.59;90.75;101500.25;6388757;27;20272;-76
2021/07/07 11:27:39;;;;;;;12.98;8.75;;;;;;;23.52;91.87;101519.19;6388893;27;20181;-76
2021/07/07 11:30:45;;;;;;;11.50;9.63;;;;;;;23.59;91.84;101539.25;6388556;27;20274;-76
2021/07/07 11:33:58;;;;;;;11.52;9.82;;;;;;;23.60;92.22;101545.63;6387862;28;20182;-77
2021/07/07 11:37:05;;;;;;;10.48;9.32;;;;;;;23.67;91.59;101558.16;6388194;28;20192;-76
2021/07/07 11:40:16;;;;;;;10.93;8.95;;;;;;;23.56;91.62;101550.94;6388490;28;20209;-76
2021/07/07 11:43:24;;;;;;;10.60;9.68;;;;;;;23.62;90.39;101544.22;6369608;28;20488;-76
2021/07/07 11:46:31;;;;;;;11.38;10.27;;;;;;;23.61;91.46;101542.56;6402995;27;20200;-76
2021/07/07 11:49:35;;;;;;;13.52;10.30;;;;;;;23.57;92.51;101552.59;6388099;28;20186;-76
2021/07/07 11:52:53;;;;;;;12.60;10.32;;;;;;;23.65;93.36;101535.28;6388357;28;20181;-75
2021/07/07 11:55:59;;;;;;;11.38;10.30;;;;;;;23.69;92.98;101527.19;6369944;28;20197;-75
2021/07/07 11:59:11;;;;;;;12.35;10.50;;;;;;;23.77;91.37;101528.53;6388126;28;20205;-75
2021/07/07 12:02:16;;;;;;;13.90;12.10;;;;;;;23.79;92.25;101529.09;6387384;28;20182;-74
2021/07/07 12:05:20;;;;;;;12.27;11.13;;;;;;;23.85;91.09;101527.94;6387881;28;20186;-75
2021/07/07 12:08:26;;;;;;;10.65;9.75;;;;;;;23.77;91.80;101528.53;6387761;28;20186;-75
2021/07/07 12:11:30;;;;;;;11.48;10.00;;;;;;;23.78;92.27;101535.81;6387781;27;20242;-76
2021/07/07 12:14:36;;;;;;;11.95;10.75;;;;;;;23.85;91.70;101530.72;6374799;27;20264;-76
2021/07/07 12:17:46;;;;;;;11.82;10.73;;;;;;;23.85;90.88;101541.88;6392745;27;20248;-76
2021/07/07 12:20:53;;;;;;;11.75;10.63;;;;;;;23.82;90.70;101553.59;6392509;27;20258;-76
2021/07/07 12:23:59;;;;;;;11.88;10.77;;;;;;;23.82;90.40;101548.84;6391396;27;20265;-76
2021/07/07 12:27:05;;;;;;;11.13;10.20;;;;;;;23.82;89.81;101559.16;6391839;27;20188;-76
2021/07/07 12:30:11;;;;;;;12.13;10.98;;;;;;;23.85;90.80;101564.16;6392413;27;20232;-76
2021/07/07 12:33:18;;;;;;;11.90;10.80;;;;;;;23.80;91.06;101573.41;6392885;27;20181;-76
2021/07/07 12:36:28;;;;;;;13.05;11.00;;;;;;;23.85;90.83;101580.88;6392311;27;20249;-76
2021/07/07 12:39:34;;;;;;;13.05;11.27;;;;;;;23.94;90.02;101581.94;6392642;27;20205;-76
2021/07/07 12:42:40;;;;;;;12.63;11.38;;;;;;;23.99;89.88;101576.31;6392059;27;20257;-75
2021/07/07 12:45:45;;;;;;;14.98;12.23;;;;;;;23.90;90.30;101578.06;6391653;27;20197;-76
2021/07/07 12:48:52;;;;;;;13.13;11.82;;;;;;;23.75;89.99;101587.34;6393263;27;20336;-76
2021/07/07 12:51:56;;;;;;;14.63;13.15;;;;;;;23.80;91.53;101586.50;6391914;27;20185;-75
2021/07/07 12:55:05;;;;;;;16.25;11.32;;;;;;;23.86;89.64;101576.97;6391894;27;20234;-75
2021/07/07 12:58:14;;;;;;;12.50;11.25;;;;;;;23.89;88.77;101590.31;6392206;27;20259;-75
2021/07/07 13:01:20;;;;;;;12.95;11.60;;;;;;;23.81;89.57;101590.94;6392553;27;20210;-76
2021/07/07 13:04:25;;;;;;;13.75;12.35;;;;;;;23.90;89.49;101584.47;6391464;27;20182;-76
2021/07/07 13:07:29;;;;;;;14.98;11.90;;;;;;;23.91;89.49;101574.19;6391574;27;20249;-76
2021/07/07 13:10:37;;;;;;;13.02;11.63;;;;;;;23.84;89.30;101573.63;6390331;27;20514;-76
2021/07/07 13:13:41;;;;;;;13.27;11.93;;;;;;;23.89;89.12;101570.81;6391471;27;20189;-76
2021/07/07 13:16:51;;;;;;;13.05;11.75;;;;;;;23.92;88.82;101575.81;6391499;27;20220;-75
2021/07/07 13:20:02;;;;;;;15.82;12.30;;;;;;;23.85;89.07;101597.59;6390988;27;20315;-76
2021/07/07 13:23:06;;;;;;;13.48;12.27;;;;;;;23.82;90.42;101598.19;6390750;27;20192;-75
2021/07/07 13:26:23;;;;;;;14.23;11.57;;;;;;;23.89;89.78;101593.13;6389763;27;20410;-75
2021/07/07 13:29:29;;;;;;;16.67;11.52;;;;;;;23.87;91.44;101604.56;6389858;27;20416;-75
2021/07/07 13:32:33;;;;;;;13.40;12.10;;;;;;;23.92;91.36;101620.41;6391016;27;20213;-76
2021/07/07 13:35:38;;;;;;;13.80;12.07;;;;;;;23.90;92.04;101622.66;6390709;27;20213;-76
2021/07/07 13:38:42;;;;;;;14.27;12.80;;;;;;;23.81;91.82;101625.19;6391044;27;20427;-76
2021/07/07 13:41:47;;;;;;;29.85;23.35;;;;;;;23.80;93.23;101623.56;6390468;27;20216;-76
2021/07/07 13:44:52;;;;;;;244.02;183.23;;;;;;;23.82;93.41;101626.88;6390532;27;20248;-76
2021/07/07 13:48:01;;;;;;;24.83;19.10;;;;;;;23.80;92.66;101617.13;6389418;27;20365;-75
2021/07/07 13:51:07;;;;;;;15.77;13.82;;;;;;;23.88;92.84;101620.13;6389167;27;20469;-76
2021/07/07 13:54:11;;;;;;;18.17;14.35;;;;;;;23.80;94.56;101619.94;6389947;27;20181;-76
2021/07/07 13:57:16;;;;;;;15.95;14.25;;;;;;;23.80;93.84;101622.72;6390568;27;20185;-76
2021/07/07 14:00:21;;;;;;;15.73;14.02;;;;;;;23.81;93.95;101635.50;6388875;27;20228;-76
2021/07/07 14:03:25;;;;;;;16.55;14.38;;;;;;;23.84;93.60;101640.50;6389910;27;20182;-76
2021/07/07 14:06:31;;;;;;;16.55;14.50;;;;;;;23.80;93.70;101645.00;6390203;27;20258;-76
2021/07/07 14:09:36;;;;;;;19.42;14.50;;;;;;;23.83;93.78;101650.00;6389226;27;20207;-76
2021/07/07 14:12:40;;;;;;;16.00;14.30;;;;;;;23.85;92.96;101658.91;6390192;27;20273;-76
2021/07/07 14:15:44;;;;;;;16.70;14.82;;;;;;;23.83;92.91;101663.94;6388599;27;20218;-77
2021/07/07 14:18:49;;;;;;;16.50;14.75;;;;;;;23.82;93.23;101659.47;6389518;27;20409;-76
2021/07/07 14:21:55;;;;;;;18.73;15.70;;;;;;;23.67;94.44;101657.59;6371100;27;20249;-76